AirNav   Duncan Aviation - Near you to keep you flying
 
 599 users online  

XS82 Del Rio Heliport
San Antonio, Texas, USA

GOING TO SAN ANTONIO?


FAA INFORMATION EFFECTIVE 26 JANUARY 2023

Location

FAA Identifier: XS82
Lat/Long: 29-25-20.8390N 098-29-02.0600W
29-25.347317N 098-29.034333W
29.4224553,-98.4839056
(estimated)
Elevation: 707 ft. / 215 m (estimated)
Variation: 07E (1985)
Time zone: UTC -6 (UTC -5 during Daylight Saving Time)
Zip code: 78205

Heliport Operations

Heliport use: Private use. Permission required prior to landing
Control tower: no
ARTCC: HOUSTON CENTER
FSS: SAN ANGELO FLIGHT SERVICE STATION
Attendance: UNATNDD
Wind indicator: lighted
Segmented circle: no

Heliport Communications

WX ASOS at SSF (5 nm S): PHONE 210-927-9391
WX ASOS at SAT (7 nm N): PHONE 210-805-5583
WX AWOS-3 at CVB (20 nm W): 119.25 (830-931-0232)

Nearby radio navigation aids

VOR radial/distance  VOR name  Freq  Var
SSFr339/(10.1)STINSON VOR108.4009E
RNDr236/11.9RANDOLPH VORTAC112.3005E
SATr177/13.3SAN ANTONIO VORTAC116.8008E

 
NDB name  Hdg/Dist  Freq  Var  ID
ALAMO154/12.036804EAN .- -.
DEVINE047/29.335907EHHH .... .... ....

Heliport Services

Airframe service: NONE
Powerplant service: NONE

Runway Information

Helipad H1

Dimensions: 60 x 60 ft. / 18 x 18 m
Surface: concrete
Latitude: 29-25.347317N
Longitude: 098-29.034333W
Elevation: 707.0 ft.
Traffic pattern: leftleft

Heliport Ownership and Management from official FAA records

Ownership: Publicly-owned
Owner: CITY OF SAN ANTONIO
9800 AIRPORT BOULEVARD
SAN ANTONIO, TX 78216
Phone 512-821-3450
Manager: M J KUTCHINS
9800 AIRPORT BOULEVARD
SAN ANTONIO, TX 78216
Phone 512-821-3450

Heliport Operational Statistics

Aircraft based on the field: 3
Helicopters: 3
    

Additional Remarks

A40 YELLOW PERIMETER LGTS AND LANDING DIRECTION LGT.
A52-H1 BLDG SOUTH.
FOR CD CTC SAN ANTONIO APCH AT 210-805-5516.

Instrument Procedures

There are no published instrument procedures at XS82.

Some nearby airports with instrument procedures:

KSSF - Stinson Municipal Airport (5 nm S)
KSKF - Kelly Field Airport (6 nm SW)
KSAT - San Antonio International Airport (7 nm N)
KRND - Randolph Air Force Base (13 nm NE)
KCVB - Castroville Municipal Airport (20 nm W)
 
Loc | Ops | Rwys | IFR | FBO | Links
Com | Nav | Svcs | Stats | Notes
Area around XS82 (Del Rio Heliport)
 
Road maps at: MapQuest Bing Google
 
Aerial photo
No photo
 
Sectional chart

 
Airport distance calculator
Flying to Del Rio Heliport? Find the distance to fly.

From to XS82

Sunrise and sunset
Times for 29-Jan-2023
 Local
(UTC-6)
 Zulu
(UTC)
Morning civil twilight07:0113:01
Sunrise07:2613:26
Sunset18:0800:08
Evening civil twilight18:3300:33

Current date and time
Zulu (UTC)  29-Jan-2023 09:53:59
Local (UTC-6)  29-Jan-2023 03:53:59
 
METAR
KSSF 
5nm S 
290934Z AUTO 16004KT 4SM BR OVC006 18/18 A2993 RMK AO2 T01780178
KSKF 
5nm SW 
290930Z AUTO 00000KT 1 3/4SM BR OVC004 17/16 A2993 RMK AO2 SLP133 $
KSAT 
7nm N 
290930Z 16003KT 1SM R13R/P6000FT -DZ BR OVC003 17/17 A2996 RMK AO2 P0000 T01720167
KRND 
13nm NE 
290930Z AUTO 18007KT 10SM OVC005 18/18 A2993 RMK AO2 CIG 004 RWY15R SLP132
KCVB 
20nm W 
290936Z AUTO 00000KT M1/4SM FG OVC003 17/17 A2998 RMK AO2
TAF
KSSF 
5nm S 
290526Z 2906/3006 16004KT 1 1/2SM -DZ BR OVC003 FM290700 17004KT 1/2SM -DZ FG OVC003 FM291500 VRB05KT 4SM -SHRA OVC008 FM291800 04008KT P6SM -SHRA OVC015 FM300000 03012KT P6SM BKN025
KSKF 
5nm SW 
290445Z 2904/3008 VRB06KT 3200 BR OVC005 QNH2997INS BECMG 2905/2906 16006KT 0800 -DZ FG OVC005 QNH2992INS TEMPO 2907/2911 VRB06KT 0300 DZ FG VV001 BECMG 2912/2913 VRB06KT 0500 -RADZ FG VV002 QNH2993INS BECMG 2915/2916 02006KT 2400 BR OVC007 QNH2996INS BECMG 2917/2918 34006KT 4800 BR BKN010 OVC018 QNH2992INS BECMG 2920/2921 04006KT 6000 BR BKN022 OVC040 QNH2992INS BECMG 3003/3004 04010G15KT 9999 NSW BKN020 OVC030 QNH3004INS TX23/2921Z TN14/2904Z LAST NO AMDS AFT 2906 NEXT 2910
KSAT 
7nm N 
290653Z 2907/3012 00000KT 1/4SM -DZ FG VV002 FM291500 VRB05KT 4SM -SHRA OVC008 FM291800 04008KT P6SM -SHRA OVC015 FM300000 03012KT P6SM BKN025 FM300600 03010KT P6SM BKN015
NOTAMs
Click for the latest NOTAMs
NOTAMs are issued by the DoD/FAA and will open in a separate window not controlled by AirNav.

 

 
 

Would you like to see your business listed on this page?

 If your business provides an interesting product or service to pilots, flight crews, aircraft, or users of the Del Rio Heliport, you should consider listing it here.  To start the listing process, click on the button below
 
Add a business
 

Other Pages about Del Rio Heliport

Update a link
 
Copyright © AirNav, LLC. All rights reserved. Privacy Policy  Contact